createdAt,value
2023-03-17T00:00:33.742Z,1019.08
2023-03-17T00:01:33.949Z,1019.14
2023-03-17T00:02:34.099Z,1019.14
2023-03-17T00:03:34.304Z,1019.18
2023-03-17T00:04:34.439Z,1019.07
2023-03-17T00:05:34.693Z,1019.09
2023-03-17T00:06:34.810Z,1019.06
2023-03-17T00:07:34.968Z,1019.03
2023-03-17T00:08:35.132Z,1019.03
2023-03-17T00:09:35.352Z,1019.04
2023-03-17T00:10:35.512Z,1019.09
2023-03-17T00:11:35.701Z,1019.08
2023-03-17T00:12:35.879Z,1019.05
2023-03-17T00:13:36.070Z,1019.08
2023-03-17T00:14:36.279Z,1019.03
2023-03-17T00:15:36.453Z,1019.06
2023-03-17T00:16:36.612Z,1019.06
2023-03-17T00:17:36.766Z,1019.04
2023-03-17T00:18:36.917Z,1019.08
2023-03-17T00:19:37.108Z,1019.16
2023-03-17T00:20:37.267Z,1019.13
2023-03-17T00:21:37.469Z,1019.04
2023-03-17T00:22:37.626Z,1019.06
2023-03-17T00:23:37.819Z,1019.04
2023-03-17T00:24:37.970Z,1018.99
2023-03-17T00:25:38.158Z,1018.96
2023-03-17T00:26:38.329Z,1018.95
2023-03-17T00:27:38.488Z,1018.89
2023-03-17T00:28:38.639Z,1018.87
2023-03-17T00:29:38.837Z,1018.87
2023-03-17T00:30:38.993Z,1018.86
2023-03-17T00:31:39.398Z,1018.84
2023-03-17T00:32:39.403Z,1018.88
2023-03-17T00:33:39.537Z,1018.84
2023-03-17T00:34:39.751Z,1018.88
2023-03-17T00:35:39.924Z,1018.83
2023-03-17T00:36:40.097Z,1018.83
2023-03-17T00:37:40.251Z,1018.75
2023-03-17T00:38:40.446Z,1018.72
2023-03-17T00:39:40.601Z,1018.72
2023-03-17T00:40:40.787Z,1018.64
2023-03-17T00:41:40.964Z,1018.66
2023-03-17T00:42:41.114Z,1018.60
2023-03-17T00:43:41.268Z,1018.59
2023-03-17T00:44:41.460Z,1018.55
2023-03-17T00:45:41.636Z,1018.49
2023-03-17T00:46:42.194Z,1018.46
2023-03-17T00:47:41.962Z,1018.43
2023-03-17T00:48:42.153Z,1018.45
2023-03-17T00:49:42.324Z,1018.35
2023-03-17T00:50:42.482Z,1018.39
2023-03-17T00:51:42.656Z,1018.34
2023-03-17T00:52:42.823Z,1018.36
2023-03-17T00:53:42.986Z,1018.36
2023-03-17T00:54:43.172Z,1018.39
2023-03-17T00:55:43.329Z,1018.32
2023-03-17T00:56:43.533Z,1018.32
2023-03-17T00:57:43.688Z,1018.37
2023-03-17T00:58:43.882Z,1018.38
2023-03-17T00:59:44.044Z,1018.34
2023-03-17T01:00:44.276Z,1018.33
2023-03-17T01:01:44.503Z,1018.31
2023-03-17T01:02:44.591Z,1018.31
2023-03-17T01:03:44.737Z,1018.29
2023-03-17T01:04:50.000Z,1018.35
2023-03-17T01:05:46.107Z,1018.35
2023-03-17T01:06:45.305Z,1018.38
2023-03-17T01:07:45.470Z,1018.35
2023-03-17T01:08:45.670Z,1018.38
2023-03-17T01:09:45.840Z,1018.36
2023-03-17T01:10:46.005Z,1018.43
2023-03-17T01:11:46.200Z,1018.40
2023-03-17T01:12:46.347Z,1018.42
2023-03-17T01:13:46.549Z,1018.46
2023-03-17T01:14:46.729Z,1018.44
2023-03-17T01:15:46.880Z,1018.46
2023-03-17T01:16:47.164Z,1018.43
2023-03-17T01:17:47.251Z,1018.40
2023-03-17T01:18:47.483Z,1018.37
2023-03-17T01:19:47.618Z,1018.31
2023-03-17T01:20:47.789Z,1018.32
2023-03-17T01:21:48.015Z,1018.26
2023-03-17T01:22:48.128Z,1018.27
2023-03-17T01:23:48.280Z,1018.19
2023-03-17T01:24:48.517Z,1018.14
2023-03-17T01:25:48.633Z,1018.15
2023-03-17T01:26:48.838Z,1018.11
2023-03-17T01:27:48.989Z,1018.12
2023-03-17T01:28:49.179Z,1018.11
2023-03-17T01:29:49.368Z,1018.10
2023-03-17T01:30:49.583Z,1018.07
2023-03-17T01:31:49.772Z,1017.98
2023-03-17T01:32:49.953Z,1017.97
2023-03-17T01:33:50.078Z,1017.97
2023-03-17T01:34:50.238Z,1017.94
2023-03-17T01:35:50.428Z,1017.91
2023-03-17T01:36:50.607Z,1017.92
2023-03-17T01:37:50.767Z,1017.92
2023-03-17T01:38:51.030Z,1017.96
2023-03-17T01:39:51.111Z,1017.91
2023-03-17T01:40:51.307Z,1017.88
2023-03-17T01:41:51.469Z,1017.87
2023-03-17T01:42:51.627Z,1017.89
2023-03-17T01:43:51.808Z,1017.85
2023-03-17T01:44:52.006Z,1017.85
2023-03-17T01:45:52.184Z,1017.85
2023-03-17T01:46:52.349Z,1017.86
2023-03-17T01:47:52.508Z,1017.93
2023-03-17T01:48:52.702Z,1017.89
2023-03-17T01:49:52.847Z,1017.87
2023-03-17T01:50:53.049Z,1017.90
2023-03-17T01:51:53.219Z,1017.87
2023-03-17T01:52:53.377Z,1017.83
2023-03-17T01:53:53.538Z,1017.87
2023-03-17T01:54:53.716Z,1017.87
2023-03-17T01:55:53.907Z,1017.85
2023-03-17T01:56:54.128Z,1017.82
2023-03-17T01:57:54.305Z,1017.75
2023-03-17T01:58:54.460Z,1017.78
2023-03-17T01:59:54.631Z,1017.78
2023-03-17T02:00:54.872Z,1017.79
2023-03-17T02:01:55.006Z,1017.76
2023-03-17T02:05:23.966Z,1017.79
2023-03-17T02:06:24.143Z,1017.68
2023-03-17T02:07:24.295Z,1017.75
2023-03-17T02:08:24.463Z,1017.74
2023-03-17T02:09:24.635Z,1017.71
2023-03-17T02:10:24.835Z,1017.68
2023-03-17T02:11:24.995Z,1017.72
2023-03-17T02:12:25.156Z,1017.71
2023-03-17T02:13:25.334Z,1017.75
2023-03-17T02:14:25.599Z,1017.77
2023-03-17T02:15:25.704Z,1017.73
2023-03-17T02:16:25.872Z,1017.70
2023-03-17T02:17:26.045Z,1017.67
2023-03-17T02:18:26.238Z,1017.69
2023-03-17T02:19:26.459Z,1017.67
2023-03-17T02:20:26.579Z,1017.65
2023-03-17T02:21:26.733Z,1017.64
2023-03-17T02:22:26.924Z,1017.63
2023-03-17T02:23:27.122Z,1017.67
2023-03-17T02:24:27.294Z,1017.64
2023-03-17T02:25:27.445Z,1017.59
2023-03-17T02:26:27.653Z,1017.61
2023-03-17T02:27:27.796Z,1017.60
2023-03-17T02:28:27.972Z,1017.55
2023-03-17T02:29:28.177Z,1017.52
2023-03-17T02:30:28.611Z,1017.49
2023-03-17T02:31:28.522Z,1017.57
2023-03-17T02:32:28.717Z,1017.59
2023-03-17T02:33:28.847Z,1017.55
2023-03-17T02:34:29.032Z,1017.56
2023-03-17T02:35:29.227Z,1017.49
2023-03-17T02:36:29.494Z,1017.42
2023-03-17T02:37:29.594Z,1017.41
2023-03-17T02:38:29.812Z,1017.44
2023-03-17T02:39:29.945Z,1017.41
2023-03-17T02:40:30.367Z,1017.35
2023-03-17T02:41:30.338Z,1017.38
2023-03-17T02:42:30.485Z,1017.42
2023-03-17T02:43:30.673Z,1017.42
2023-03-17T02:44:30.857Z,1017.40
2023-03-17T02:45:31.045Z,1017.40
2023-03-17T02:46:31.332Z,1017.42
2023-03-17T02:47:31.395Z,1017.42
2023-03-17T02:48:31.591Z,1017.37
2023-03-17T02:49:31.774Z,1017.46
2023-03-17T02:50:32.225Z,1017.44
2023-03-17T02:51:32.114Z,1017.44
2023-03-17T02:52:32.278Z,1017.43
2023-03-17T02:53:32.426Z,1017.46
2023-03-17T02:54:32.626Z,1017.44
2023-03-17T02:55:32.774Z,1017.42
2023-03-17T02:56:32.970Z,1017.47
2023-03-17T02:57:33.176Z,1017.44
2023-03-17T02:58:33.317Z,1017.47
2023-03-17T02:59:33.513Z,1017.48
2023-03-17T03:00:33.665Z,1017.43
2023-03-17T03:01:33.919Z,1017.49
2023-03-17T03:02:34.084Z,1017.43
2023-03-17T03:03:34.207Z,1017.46
2023-03-17T03:04:34.407Z,1017.55
2023-03-17T03:05:34.553Z,1017.51
2023-03-17T03:06:34.743Z,1017.51
2023-03-17T03:07:34.935Z,1017.52
2023-03-17T03:08:35.096Z,1017.51
2023-03-17T03:09:35.248Z,1017.52
2023-03-17T03:10:35.437Z,1017.50
2023-03-17T03:11:35.624Z,1017.57
2023-03-17T03:12:35.827Z,1017.63
2023-03-17T03:13:35.975Z,1017.63
2023-03-17T03:14:36.164Z,1017.63
2023-03-17T03:15:36.389Z,1017.68
2023-03-17T03:16:36.526Z,1017.64
2023-03-17T03:17:36.725Z,1017.64
2023-03-17T03:18:36.884Z,1017.65
2023-03-17T03:19:37.061Z,1017.65
2023-03-17T03:20:37.264Z,1017.61
2023-03-17T03:21:37.410Z,1017.57
2023-03-17T03:22:37.656Z,1017.59
2023-03-17T03:23:37.775Z,1017.53
2023-03-17T03:24:37.943Z,1017.45
2023-03-17T03:25:38.082Z,1017.45
2023-03-17T03:26:38.285Z,1017.54
2023-03-17T03:27:38.473Z,1017.51
2023-03-17T03:28:38.633Z,1017.52
2023-03-17T03:29:38.783Z,1017.54
2023-03-17T03:30:38.974Z,1017.56
2023-03-17T03:31:39.170Z,1017.52
2023-03-17T03:32:39.395Z,1017.56
2023-03-17T03:33:39.493Z,1017.59
2023-03-17T03:34:39.719Z,1017.61
2023-03-17T03:35:39.880Z,1017.68
2023-03-17T03:36:40.036Z,1017.64
2023-03-17T03:37:40.234Z,1017.69
2023-03-17T03:38:40.391Z,1017.67
2023-03-17T03:39:40.582Z,1017.65
2023-03-17T03:40:40.765Z,1017.69
2023-03-17T03:41:40.923Z,1017.71
2023-03-17T03:42:41.125Z,1017.63
2023-03-17T03:43:41.300Z,1017.55
2023-03-17T03:44:41.468Z,1017.55
2023-03-17T03:45:41.620Z,1017.63
2023-03-17T03:46:41.855Z,1017.62
2023-03-17T03:47:42.004Z,1017.65
2023-03-17T03:48:42.147Z,1017.62
2023-03-17T03:49:42.355Z,1017.68
2023-03-17T03:50:42.548Z,1017.63
2023-03-17T03:51:42.677Z,1017.60
2023-03-17T03:52:42.890Z,1017.60
2023-03-17T03:53:43.040Z,1017.64
2023-03-17T03:54:43.247Z,1017.61
2023-03-17T03:55:43.387Z,1017.58
2023-03-17T03:56:43.607Z,1017.54
2023-03-17T03:57:43.733Z,1017.52
2023-03-17T03:58:43.926Z,1017.52
2023-03-17T03:59:44.127Z,1017.49
2023-03-17T04:00:44.296Z,1017.53
2023-03-17T04:01:44.476Z,1017.54
2023-03-17T04:02:44.718Z,1017.51
2023-03-17T04:03:44.848Z,1017.49
2023-03-17T04:04:45.102Z,1017.44
2023-03-17T04:05:45.204Z,1017.48
2023-03-17T04:06:45.406Z,1017.50
2023-03-17T04:07:45.584Z,1017.39
2023-03-17T04:08:45.756Z,1017.47
2023-03-17T04:09:45.901Z,1017.44
2023-03-17T04:10:46.095Z,1017.38
2023-03-17T04:11:46.272Z,1017.43
2023-03-17T04:12:46.473Z,1017.39
2023-03-17T04:13:46.632Z,1017.34
2023-03-17T04:14:46.841Z,1017.39
2023-03-17T04:15:47.131Z,1017.31
2023-03-17T04:16:47.152Z,1017.26
2023-03-17T04:17:47.353Z,1017.25
2023-03-17T04:18:47.578Z,1017.26
2023-03-17T04:19:47.681Z,1017.26
2023-03-17T04:20:47.866Z,1017.24
2023-03-17T04:21:48.043Z,1017.25
2023-03-17T04:22:48.241Z,1017.24
2023-03-17T04:23:48.384Z,1017.21
2023-03-17T04:24:48.573Z,1017.21
2023-03-17T04:25:48.763Z,1017.16
2023-03-17T04:26:48.946Z,1017.15
2023-03-17T04:27:49.141Z,1017.15
2023-03-17T04:28:49.304Z,1017.16
2023-03-17T04:29:49.486Z,1017.17
2023-03-17T04:30:49.672Z,1017.24
2023-03-17T04:31:49.896Z,1017.23
2023-03-17T04:32:50.095Z,1017.24
2023-03-17T04:33:50.213Z,1017.17
2023-03-17T04:34:50.405Z,1017.11
2023-03-17T04:35:50.594Z,1017.11
2023-03-17T04:36:50.752Z,1017.11
2023-03-17T04:37:50.912Z,1017.11
2023-03-17T04:38:51.070Z,1017.19
2023-03-17T04:39:51.264Z,1017.20
2023-03-17T04:40:51.450Z,1017.20
2023-03-17T04:41:51.609Z,1017.16
2023-03-17T04:42:51.811Z,1017.20
2023-03-17T04:43:51.962Z,1017.12
2023-03-17T04:44:52.161Z,1017.13
2023-03-17T04:45:52.469Z,1017.13
2023-03-17T04:46:52.501Z,1017.10
2023-03-17T04:47:52.670Z,1017.05
2023-03-17T04:48:52.824Z,1017.00
2023-03-17T04:49:53.019Z,1017.05
2023-03-17T04:50:53.177Z,1017.04
2023-03-17T04:51:53.358Z,1017.01
2023-03-17T04:52:53.551Z,1017.00
2023-03-17T04:53:53.716Z,1017.04
2023-03-17T04:54:53.899Z,1016.96
2023-03-17T04:55:54.089Z,1017.00
2023-03-17T04:56:54.280Z,1017.08
2023-03-17T04:57:54.486Z,1017.12
2023-03-17T04:58:54.638Z,1017.14
2023-03-17T04:59:54.840Z,1017.14
2023-03-17T05:00:55.037Z,1017.17
2023-03-17T05:01:55.196Z,1017.10
2023-03-17T05:02:55.368Z,1017.12
2023-03-17T05:03:55.547Z,1017.16
2023-03-17T05:04:55.728Z,1017.18
2023-03-17T05:05:55.888Z,1017.15
2023-03-17T05:06:56.071Z,1017.18
2023-03-17T05:07:56.228Z,1017.16
2023-03-17T05:08:56.408Z,1017.12
2023-03-17T05:09:56.607Z,1017.10
2023-03-17T05:10:56.746Z,1017.05
2023-03-17T05:11:56.919Z,1016.99
2023-03-17T05:12:57.108Z,1017.03
2023-03-17T05:13:57.252Z,1017.08
2023-03-17T05:14:57.418Z,1017.13
2023-03-17T05:15:57.596Z,1017.11
2023-03-17T05:16:57.868Z,1017.14
2023-03-17T05:17:57.958Z,1017.15
2023-03-17T05:18:58.137Z,1017.14
2023-03-17T05:19:58.328Z,1017.14
2023-03-17T05:20:58.507Z,1017.10
2023-03-17T05:21:58.669Z,1017.09
2023-03-17T05:22:58.872Z,1017.12
2023-03-17T05:23:59.026Z,1017.09
2023-03-17T05:24:59.236Z,1017.11
2023-03-17T05:25:59.382Z,1017.08
2023-03-17T05:26:59.555Z,1017.06
2023-03-17T05:27:59.746Z,1017.11
2023-03-17T05:28:59.897Z,1017.13
2023-03-17T05:30:00.106Z,1017.12
2023-03-17T05:31:00.349Z,1017.10
2023-03-17T05:32:00.429Z,1017.08
2023-03-17T05:33:00.666Z,1017.05
2023-03-17T05:34:00.772Z,1017.07
2023-03-17T05:35:00.945Z,1017.09
2023-03-17T05:36:01.145Z,1017.04
2023-03-17T05:37:01.324Z,1017.06
2023-03-17T05:38:01.505Z,1017.05
2023-03-17T05:39:01.654Z,1017.03
2023-03-17T05:40:01.834Z,1017.07
2023-03-17T05:41:02.024Z,1017.10
2023-03-17T05:42:02.221Z,1017.07
2023-03-17T05:43:02.416Z,1017.07
2023-03-17T05:44:02.587Z,1017.06
2023-03-17T05:45:02.790Z,1017.05
2023-03-17T05:46:02.954Z,1017.02
2023-03-17T05:47:03.105Z,1016.99
2023-03-17T05:48:03.303Z,1016.99
2023-03-17T05:49:03.487Z,1017.00
2023-03-17T05:50:03.672Z,1016.92
2023-03-17T05:51:03.822Z,1016.94
2023-03-17T05:52:04.002Z,1016.98
2023-03-17T05:53:04.193Z,1016.99
2023-03-17T05:54:04.381Z,1016.99
2023-03-17T05:55:04.608Z,1016.99
2023-03-17T05:56:04.751Z,1016.97
2023-03-17T05:57:04.935Z,1016.97
2023-03-17T05:58:05.113Z,1017.00
2023-03-17T05:59:05.307Z,1016.99
2023-03-17T06:00:05.541Z,1016.96
2023-03-17T06:01:05.690Z,1016.96
2023-03-17T06:02:05.862Z,1016.85
2023-03-17T06:03:07.041Z,1016.89
2023-03-17T06:04:06.213Z,1016.85
2023-03-17T06:05:06.405Z,1016.85
2023-03-17T06:06:06.566Z,1016.84
2023-03-17T06:07:06.715Z,1016.80
2023-03-17T06:08:06.921Z,1016.79
2023-03-17T06:09:07.073Z,1016.77
2023-03-17T06:10:07.256Z,1016.72
2023-03-17T06:11:07.425Z,1016.82
2023-03-17T06:12:07.612Z,1016.82
2023-03-17T06:13:07.793Z,1016.85
2023-03-17T06:14:08.011Z,1016.80
2023-03-17T06:15:08.154Z,1016.88
2023-03-17T06:16:08.437Z,1016.86
2023-03-17T06:17:08.507Z,1016.85
2023-03-17T06:18:08.699Z,1016.82
2023-03-17T06:19:08.910Z,1016.83
2023-03-17T06:20:09.063Z,1016.76
2023-03-17T06:21:09.237Z,1016.77
2023-03-17T06:22:09.417Z,1016.80
2023-03-17T06:23:09.612Z,1016.80
2023-03-17T06:24:09.785Z,1016.79
2023-03-17T06:25:09.977Z,1016.77
2023-03-17T06:26:10.155Z,1016.73
2023-03-17T06:27:10.333Z,1016.79
2023-03-17T06:28:10.503Z,1016.80
2023-03-17T06:29:10.680Z,1016.80
2023-03-17T06:30:10.862Z,1016.80
2023-03-17T06:31:11.114Z,1016.85
2023-03-17T06:32:20.207Z,1016.90
2023-03-17T06:33:12.459Z,1016.86
2023-03-17T06:34:11.665Z,1016.88
2023-03-17T06:35:11.752Z,1016.88
2023-03-17T06:36:11.935Z,1016.85
2023-03-17T06:37:12.227Z,1016.79
2023-03-17T06:38:12.297Z,1016.76
2023-03-17T06:39:12.461Z,1016.68
2023-03-17T06:40:12.664Z,1016.65
2023-03-17T06:41:12.829Z,1016.60
2023-03-17T06:42:13.011Z,1016.58
2023-03-17T06:43:13.203Z,1016.54
2023-03-17T06:44:13.372Z,1016.54
2023-03-17T06:45:13.567Z,1016.55
2023-03-17T06:46:13.776Z,1016.56
2023-03-17T06:47:13.892Z,1016.59
2023-03-17T06:48:14.080Z,1016.55
2023-03-17T06:49:14.256Z,1016.51
2023-03-17T06:50:14.450Z,1016.58
2023-03-17T06:51:14.613Z,1016.48
2023-03-17T06:52:14.789Z,1016.52
2023-03-17T06:53:14.992Z,1016.52
2023-03-17T06:54:15.165Z,1016.50
2023-03-17T06:55:15.379Z,1016.47
2023-03-17T06:56:29.213Z,1016.46
2023-03-17T06:57:16.752Z,1016.42
2023-03-17T06:58:15.951Z,1016.39
2023-03-17T06:59:16.114Z,1016.43
2023-03-17T07:00:16.280Z,1016.39
2023-03-17T07:01:16.472Z,1016.31
2023-03-17T07:02:16.608Z,1016.33
2023-03-17T07:03:16.803Z,1016.36
2023-03-17T07:04:17.006Z,1016.40
2023-03-17T07:05:17.158Z,1016.37
2023-03-17T07:06:17.328Z,1016.34
2023-03-17T07:07:17.508Z,1016.35
2023-03-17T07:08:17.699Z,1016.35
2023-03-17T07:09:17.840Z,1016.40
2023-03-17T07:10:18.018Z,1016.35
2023-03-17T07:11:18.199Z,1016.44
2023-03-17T07:12:18.399Z,1016.39
2023-03-17T07:13:18.563Z,1016.50
2023-03-17T07:14:18.723Z,1016.42
2023-03-17T07:15:18.875Z,1016.45
2023-03-17T07:16:19.092Z,1016.47
2023-03-17T07:17:19.223Z,1016.40
2023-03-17T07:18:19.419Z,1016.36
2023-03-17T07:19:19.574Z,1016.26
2023-03-17T07:20:19.773Z,1016.17
2023-03-17T07:21:19.914Z,1016.09
2023-03-17T07:22:20.104Z,1016.09
2023-03-17T07:23:20.317Z,1016.15
2023-03-17T07:24:20.485Z,1016.34
2023-03-17T07:25:20.637Z,1016.29
2023-03-17T07:26:20.820Z,1016.29
2023-03-17T07:27:22.982Z,1016.26
2023-03-17T07:28:21.209Z,1016.25
2023-03-17T07:29:21.372Z,1016.14
2023-03-17T07:30:21.552Z,1016.10
2023-03-17T07:31:21.747Z,1016.10
2023-03-17T07:32:21.844Z,1016.13
2023-03-17T07:33:22.043Z,1016.22
2023-03-17T07:34:22.225Z,1016.28
2023-03-17T07:35:22.449Z,1016.33
2023-03-17T07:36:22.604Z,1016.33
2023-03-17T07:37:22.764Z,1016.34
2023-03-17T07:38:22.934Z,1016.33
2023-03-17T07:39:23.108Z,1016.34
2023-03-17T07:40:23.277Z,1016.34
2023-03-17T07:41:23.426Z,1016.32
2023-03-17T07:42:23.641Z,1016.32
2023-03-17T07:43:23.772Z,1016.34
2023-03-17T07:44:23.958Z,1016.26
2023-03-17T07:45:24.166Z,1016.26
2023-03-17T07:46:24.371Z,1016.28
2023-03-17T07:47:24.496Z,1016.35
2023-03-17T07:48:24.657Z,1016.33
2023-03-17T07:49:40.109Z,1016.38
2023-03-17T07:50:25.992Z,1016.33
2023-03-17T07:51:25.179Z,1016.28
2023-03-17T07:52:25.335Z,1016.21
2023-03-17T07:53:25.525Z,1016.21
2023-03-17T07:54:25.684Z,1016.22
2023-03-17T07:55:25.851Z,1016.33
2023-03-17T07:56:26.022Z,1016.31
2023-03-17T07:57:26.377Z,1016.25
2023-03-17T07:58:26.416Z,1016.26
2023-03-17T07:59:26.584Z,1016.27
2023-03-17T08:00:26.797Z,1016.31
2023-03-17T08:01:26.911Z,1016.36
2023-03-17T08:02:27.186Z,1016.31
2023-03-17T08:03:27.323Z,1016.41
2023-03-17T08:04:27.470Z,1016.49
2023-03-17T08:05:27.634Z,1016.41
2023-03-17T08:06:27.829Z,1016.35
2023-03-17T08:07:28.013Z,1016.43
2023-03-17T08:08:28.189Z,1016.32
2023-03-17T08:09:28.367Z,1016.29
2023-03-17T08:10:28.691Z,1016.26
2023-03-17T08:11:29.518Z,1016.25
2023-03-17T08:12:28.952Z,1016.25
2023-03-17T08:13:29.111Z,1016.20
2023-03-17T08:14:29.277Z,1016.21
2023-03-17T08:15:29.456Z,1016.16
2023-03-17T08:16:29.710Z,1016.05
2023-03-17T08:17:29.795Z,1016.05
2023-03-17T08:18:29.984Z,1016.04
2023-03-17T08:19:30.127Z,1016.05
2023-03-17T08:20:30.738Z,1015.95
2023-03-17T08:21:30.494Z,1015.93
2023-03-17T08:22:30.671Z,1015.96
2023-03-17T08:23:30.899Z,1015.90
2023-03-17T08:24:31.076Z,1015.95
2023-03-17T08:25:31.198Z,1015.96
2023-03-17T08:26:31.375Z,1015.93
2023-03-17T08:27:33.770Z,1015.97
2023-03-17T08:28:31.747Z,1016.03
2023-03-17T08:29:31.894Z,1015.95
2023-03-17T08:30:33.796Z,1016.03
2023-03-17T08:31:32.248Z,1015.99
2023-03-17T08:32:32.488Z,1016.02
2023-03-17T08:33:32.594Z,1016.01
2023-03-17T08:34:32.770Z,1015.97
2023-03-17T08:35:33.504Z,1015.88
2023-03-17T08:36:33.139Z,1015.88
2023-03-17T08:37:33.311Z,1015.89
2023-03-17T08:38:33.496Z,1015.89
2023-03-17T08:39:33.661Z,1015.85
2023-03-17T08:40:34.353Z,1015.86
2023-03-17T08:41:34.009Z,1015.82
2023-03-17T08:42:34.198Z,1015.73
2023-03-17T08:43:34.349Z,1015.75
2023-03-17T08:44:34.519Z,1015.78
2023-03-17T08:45:34.687Z,1015.72
2023-03-17T08:46:34.899Z,1015.64
2023-03-17T08:47:35.044Z,1015.67
2023-03-17T08:48:35.207Z,1015.66
2023-03-17T08:49:35.382Z,1015.65
2023-03-17T08:50:35.564Z,1015.70
2023-03-17T08:51:35.774Z,1015.61
2023-03-17T08:52:35.910Z,1015.63
2023-03-17T08:53:36.114Z,1015.65
2023-03-17T08:54:36.248Z,1015.65
2023-03-17T08:55:36.431Z,1015.59
2023-03-17T08:56:36.599Z,1015.55
2023-03-17T08:57:36.773Z,1015.66
2023-03-17T08:58:36.952Z,1015.70
2023-03-17T08:59:37.122Z,1015.65
2023-03-17T09:00:37.269Z,1015.61
2023-03-17T09:01:37.539Z,1015.59
2023-03-17T09:02:37.625Z,1015.55
2023-03-17T09:03:37.790Z,1015.61
2023-03-17T09:04:40.096Z,1015.54
2023-03-17T09:05:38.690Z,1015.44
2023-03-17T09:06:40.805Z,1015.51
2023-03-17T09:07:38.492Z,1015.49
2023-03-17T09:08:38.652Z,1015.53
2023-03-17T09:09:38.820Z,1015.42
2023-03-17T09:10:39.000Z,1015.57
2023-03-17T09:11:39.194Z,1015.51
2023-03-17T09:12:39.336Z,1015.51
2023-03-17T09:13:39.521Z,1015.49
2023-03-17T09:14:43.703Z,1015.44
2023-03-17T09:15:39.893Z,1015.37
2023-03-17T09:16:40.067Z,1015.34
2023-03-17T09:17:40.241Z,1015.41
2023-03-17T09:18:40.427Z,1015.30
2023-03-17T09:19:40.612Z,1015.23
2023-03-17T09:20:40.780Z,1015.36
2023-03-17T09:21:40.990Z,1015.21
2023-03-17T09:22:41.141Z,1015.23
2023-03-17T09:23:41.336Z,1015.30
2023-03-17T09:24:41.513Z,1015.21
2023-03-17T09:25:41.692Z,1015.23
2023-03-17T09:26:41.860Z,1015.27
2023-03-17T09:27:42.041Z,1015.25
2023-03-17T09:28:42.229Z,1015.18
2023-03-17T09:29:42.390Z,1015.21
2023-03-17T09:30:42.549Z,1015.17
2023-03-17T09:31:42.802Z,1015.20
2023-03-17T09:32:42.940Z,1015.20
2023-03-17T09:33:43.069Z,1015.18
2023-03-17T09:34:43.262Z,1015.19
2023-03-17T09:35:43.459Z,1015.14
2023-03-17T09:36:43.610Z,1015.19
2023-03-17T09:37:43.786Z,1015.16
2023-03-17T09:38:43.951Z,1015.21
2023-03-17T09:39:44.131Z,1015.18
2023-03-17T09:40:44.345Z,1015.11
2023-03-17T09:41:44.488Z,1015.04
2023-03-17T09:42:44.676Z,1015.09
2023-03-17T09:43:44.861Z,1015.10
2023-03-17T09:44:45.021Z,1015.09
2023-03-17T09:45:45.172Z,1015.03
2023-03-17T09:46:45.373Z,1015.10
2023-03-17T09:47:45.540Z,1015.15
2023-03-17T09:48:45.723Z,1015.07
2023-03-17T09:49:45.888Z,1015.09
2023-03-17T09:50:46.052Z,1015.09
2023-03-17T09:51:46.232Z,1015.06
2023-03-17T09:52:46.433Z,1015.04
2023-03-17T09:53:46.615Z,1015.11
2023-03-17T09:54:46.785Z,1015.07
2023-03-17T09:55:46.940Z,1015.12
2023-03-17T09:56:47.112Z,1015.09
2023-03-17T09:57:47.296Z,1015.09
2023-03-17T09:58:49.513Z,1015.11
2023-03-17T09:59:47.631Z,1015.13
2023-03-17T10:00:47.816Z,1015.15
2023-03-17T10:01:48.033Z,1015.20
2023-03-17T10:02:48.164Z,1015.11
2023-03-17T10:03:48.369Z,1015.17
2023-03-17T10:04:48.529Z,1015.05
2023-03-17T10:05:48.748Z,1015.10
2023-03-17T10:06:48.866Z,1015.07
2023-03-17T10:07:49.052Z,1015.13
2023-03-17T10:08:49.232Z,1015.10
2023-03-17T10:09:49.420Z,1015.09
2023-03-17T10:10:49.593Z,1015.02
2023-03-17T10:11:49.778Z,1015.08
2023-03-17T10:12:49.946Z,1015.04
2023-03-17T10:13:50.143Z,1015.03
2023-03-17T10:14:51.345Z,1015.08
2023-03-17T10:15:50.493Z,1015.03
2023-03-17T10:16:50.636Z,1015.06
2023-03-17T10:17:50.793Z,1015.05
2023-03-17T10:18:50.977Z,1015.05
2023-03-17T10:19:51.154Z,1014.98
2023-03-17T10:20:51.783Z,1015.06
2023-03-17T10:21:51.484Z,1015.11
2023-03-17T10:22:51.652Z,1015.11
2023-03-17T10:23:51.816Z,1015.06
2023-03-17T10:24:52.014Z,1015.05
2023-03-17T10:25:52.165Z,1015.07
2023-03-17T10:26:52.327Z,1015.03
2023-03-17T10:27:52.499Z,1015.00
2023-03-17T10:28:52.655Z,1015.09
2023-03-17T10:29:52.834Z,1015.02
2023-03-17T10:30:52.997Z,1015.01
2023-03-17T10:31:53.261Z,1015.01
2023-03-17T10:32:53.339Z,1015.01
2023-03-17T10:33:53.503Z,1015.03
2023-03-17T10:34:53.656Z,1015.03
2023-03-17T10:35:53.855Z,1014.92
2023-03-17T10:36:53.998Z,1014.90
2023-03-17T10:38:07.956Z,1014.89
2023-03-17T10:38:55.348Z,1014.87
2023-03-17T10:39:54.609Z,1014.77
2023-03-17T10:40:54.695Z,1014.86
2023-03-17T10:41:54.868Z,1014.82
2023-03-17T10:42:55.026Z,1014.81
2023-03-17T10:43:55.216Z,1014.81
2023-03-17T10:44:55.373Z,1014.88
2023-03-17T10:45:55.536Z,1014.79
2023-03-17T10:46:55.813Z,1014.79
2023-03-17T10:47:55.880Z,1014.76
2023-03-17T10:48:56.048Z,1014.80
2023-03-17T10:49:56.230Z,1014.78
2023-03-17T10:50:56.401Z,1014.81
2023-03-17T10:51:56.562Z,1014.85
2023-03-17T10:52:56.732Z,1014.91
2023-03-17T10:53:56.918Z,1014.90
2023-03-17T10:54:57.106Z,1014.88
2023-03-17T10:55:57.257Z,1014.83
2023-03-17T10:56:59.201Z,1014.84
2023-03-17T10:57:57.599Z,1014.82
2023-03-17T10:58:57.828Z,1014.84
2023-03-17T10:59:57.968Z,1014.80
2023-03-17T11:00:58.139Z,1014.74
2023-03-17T11:01:58.299Z,1014.74
2023-03-17T11:02:58.494Z,1014.75
2023-03-17T11:03:58.685Z,1014.71
2023-03-17T11:04:58.801Z,1014.64
2023-03-17T11:05:58.962Z,1014.70
2023-03-17T11:06:59.133Z,1014.74
2023-03-17T11:07:59.300Z,1014.65
2023-03-17T11:08:59.468Z,1014.66
2023-03-17T11:09:59.621Z,1014.59
2023-03-17T11:10:59.803Z,1014.60
2023-03-17T11:11:59.960Z,1014.62
2023-03-17T11:13:00.142Z,1014.59
2023-03-17T11:14:00.321Z,1014.53
2023-03-17T11:15:00.533Z,1014.55
2023-03-17T11:16:00.738Z,1014.53
2023-03-17T11:17:00.907Z,1014.50
2023-03-17T11:18:01.090Z,1014.56
2023-03-17T11:19:01.209Z,1014.56
2023-03-17T11:20:01.361Z,1014.57
2023-03-17T11:21:01.520Z,1014.52
2023-03-17T11:22:01.712Z,1014.52
2023-03-17T11:23:01.876Z,1014.52
2023-03-17T11:24:02.057Z,1014.51
2023-03-17T11:25:02.194Z,1014.46
2023-03-17T11:26:02.390Z,1014.46
2023-03-17T11:27:02.583Z,1014.44
2023-03-17T11:28:02.756Z,1014.45
2023-03-17T11:29:02.995Z,1014.38
2023-03-17T11:30:03.175Z,1014.44
2023-03-17T11:31:03.304Z,1014.43
2023-03-17T11:32:03.551Z,1014.46
2023-03-17T11:33:03.675Z,1014.41
2023-03-17T11:34:03.817Z,1014.41
2023-03-17T11:35:04.008Z,1014.43
2023-03-17T11:36:04.207Z,1014.38
2023-03-17T11:37:04.401Z,1014.40
2023-03-17T11:38:04.511Z,1014.39
2023-03-17T11:39:04.697Z,1014.36
2023-03-17T11:40:04.851Z,1014.39
2023-03-17T11:41:05.030Z,1014.37
2023-03-17T11:42:05.279Z,1014.36
2023-03-17T11:43:05.392Z,1014.38
2023-03-17T11:44:05.592Z,1014.40
2023-03-17T11:45:05.737Z,1014.35
2023-03-17T11:46:05.931Z,1014.38
2023-03-17T11:47:06.075Z,1014.34
2023-03-17T11:48:06.255Z,1014.38
2023-03-17T11:49:06.445Z,1014.29
2023-03-17T11:50:06.617Z,1014.31
2023-03-17T11:51:06.799Z,1014.32
2023-03-17T11:52:06.956Z,1014.35
2023-03-17T11:53:07.105Z,1014.27
2023-03-17T11:54:07.307Z,1014.31
2023-03-17T11:55:07.479Z,1014.36
2023-03-17T11:56:07.660Z,1014.33
2023-03-17T11:57:07.835Z,1014.36
2023-03-17T11:58:08.027Z,1014.31
2023-03-17T11:59:08.225Z,1014.29
2023-03-17T12:00:08.379Z,1014.23
2023-03-17T12:01:08.563Z,1014.29
2023-03-17T12:02:08.743Z,1014.24
2023-03-17T12:03:09.022Z,1014.35
2023-03-17T12:04:09.191Z,1014.34
2023-03-17T12:05:09.263Z,1014.29
2023-03-17T12:06:09.450Z,1014.31
2023-03-17T12:07:09.631Z,1014.20
2023-03-17T12:08:09.813Z,1014.17
2023-03-17T12:09:10.014Z,1014.17
2023-03-17T12:10:10.183Z,1014.14